Terminal Aerodrome Forecast
Issued by NWS Paducah, KY

Home | Current Version | Previous Version | Graphics & Text | Print | Product List | Glossary On
Versions: 1 2 3 4 5 6 7 8 9 10 11 12 13 14
000
FTUS43 KPAH 132300
TAFPAH
TAF
KPAH 132339Z 1400/1424 23006KT P6SM SCT050 SCT100
     FM140100 22005KT P6SM VCSH SCT050 BKN100
     FM140700 19005KT 6SM -SHRA BKN045 OVC100
      TEMPO 1407/1411 3SM TSRA BR BKN040CB
     FM141300 27006KT P6SM SCT100=

USA.gov is the U.S. government's official web portal to all federal, state and local government web resources and services.